sensor_id;sensor_type;location;lat;lon;timestamp;P1;durP1;ratioP1;P2;durP2;ratioP2
23001;SDS011;11667;51.706;4.856;2023-08-06T00:02:11;5.45;;;4.03;;
23001;SDS011;11667;51.706;4.856;2023-08-06T00:04:40;6.17;;;4.10;;
23001;SDS011;11667;51.706;4.856;2023-08-06T00:07:10;5.97;;;4.15;;
23001;SDS011;11667;51.706;4.856;2023-08-06T00:09:39;7.10;;;3.75;;
23001;SDS011;11667;51.706;4.856;2023-08-06T00:12:09;5.08;;;3.70;;
23001;SDS011;11667;51.706;4.856;2023-08-06T00:14:38;7.20;;;4.15;;
23001;SDS011;11667;51.706;4.856;2023-08-06T00:17:08;4.97;;;3.75;;
23001;SDS011;11667;51.706;4.856;2023-08-06T00:19:37;7.15;;;4.33;;
23001;SDS011;11667;51.706;4.856;2023-08-06T00:22:07;7.22;;;4.00;;
23001;SDS011;11667;51.706;4.856;2023-08-06T00:24:36;5.47;;;3.65;;
23001;SDS011;11667;51.706;4.856;2023-08-06T00:27:05;6.37;;;3.83;;
23001;SDS011;11667;51.706;4.856;2023-08-06T00:29:35;6.10;;;3.60;;
23001;SDS011;11667;51.706;4.856;2023-08-06T00:32:04;6.33;;;3.60;;
23001;SDS011;11667;51.706;4.856;2023-08-06T00:34:34;6.60;;;4.10;;
23001;SDS011;11667;51.706;4.856;2023-08-06T00:37:03;7.20;;;4.15;;
23001;SDS011;11667;51.706;4.856;2023-08-06T00:39:32;6.28;;;4.17;;
23001;SDS011;11667;51.706;4.856;2023-08-06T00:42:02;9.78;;;3.80;;
23001;SDS011;11667;51.706;4.856;2023-08-06T00:44:32;6.70;;;3.65;;
23001;SDS011;11667;51.706;4.856;2023-08-06T00:47:01;5.78;;;3.77;;
23001;SDS011;11667;51.706;4.856;2023-08-06T00:49:31;8.68;;;3.90;;
23001;SDS011;11667;51.706;4.856;2023-08-06T00:52:01;7.42;;;4.20;;
23001;SDS011;11667;51.706;4.856;2023-08-06T00:54:32;6.65;;;4.05;;
23001;SDS011;11667;51.706;4.856;2023-08-06T00:57:02;9.08;;;4.60;;
23001;SDS011;11667;51.706;4.856;2023-08-06T00:59:32;6.65;;;3.77;;
23001;SDS011;11667;51.706;4.856;2023-08-06T01:02:03;6.37;;;3.98;;
23001;SDS011;11667;51.706;4.856;2023-08-06T01:04:33;9.15;;;4.20;;
23001;SDS011;11667;51.706;4.856;2023-08-06T01:15:46;7.85;;;4.20;;
23001;SDS011;11667;51.706;4.856;2023-08-06T01:18:22;5.78;;;3.90;;
23001;SDS011;11667;51.706;4.856;2023-08-06T01:20:52;5.87;;;3.80;;
23001;SDS011;11667;51.706;4.856;2023-08-06T01:23:21;8.15;;;4.00;;
23001;SDS011;11667;51.706;4.856;2023-08-06T01:25:55;7.90;;;3.67;;
23001;SDS011;11667;51.706;4.856;2023-08-06T01:28:32;6.25;;;3.85;;
23001;SDS011;11667;51.706;4.856;2023-08-06T01:31:02;7.15;;;4.00;;
23001;SDS011;11667;51.706;4.856;2023-08-06T01:33:33;7.10;;;3.77;;
23001;SDS011;11667;51.706;4.856;2023-08-06T01:36:03;6.22;;;3.75;;
23001;SDS011;11667;51.706;4.856;2023-08-06T01:38:33;4.85;;;3.67;;
23001;SDS011;11667;51.706;4.856;2023-08-06T01:41:02;6.40;;;3.85;;
23001;SDS011;11667;51.706;4.856;2023-08-06T01:43:31;6.55;;;3.95;;
23001;SDS011;11667;51.706;4.856;2023-08-06T01:46:01;7.55;;;4.10;;
23001;SDS011;11667;51.706;4.856;2023-08-06T01:48:30;8.10;;;4.20;;
23001;SDS011;11667;51.706;4.856;2023-08-06T01:50:59;6.55;;;4.08;;
23001;SDS011;11667;51.706;4.856;2023-08-06T01:53:29;8.28;;;3.67;;
23001;SDS011;11667;51.706;4.856;2023-08-06T01:55:59;8.80;;;3.95;;
23001;SDS011;11667;51.706;4.856;2023-08-06T01:58:28;6.45;;;3.55;;
23001;SDS011;11667;51.706;4.856;2023-08-06T02:00:58;7.75;;;3.85;;
23001;SDS011;11667;51.706;4.856;2023-08-06T02:03:29;8.73;;;3.90;;
23001;SDS011;11667;51.706;4.856;2023-08-06T02:05:58;5.83;;;3.90;;
23001;SDS011;11667;51.706;4.856;2023-08-06T02:08:27;6.85;;;4.05;;
23001;SDS011;11667;51.706;4.856;2023-08-06T02:10:57;8.05;;;4.00;;
23001;SDS011;11667;51.706;4.856;2023-08-06T02:13:27;7.03;;;3.98;;
23001;SDS011;11667;51.706;4.856;2023-08-06T02:15:56;6.92;;;3.75;;
23001;SDS011;11667;51.706;4.856;2023-08-06T02:18:26;7.80;;;4.20;;
23001;SDS011;11667;51.706;4.856;2023-08-06T02:20:56;7.65;;;3.87;;
23001;SDS011;11667;51.706;4.856;2023-08-06T02:25:57;11.15;;;4.95;;
23001;SDS011;11667;51.706;4.856;2023-08-06T02:28:28;6.40;;;4.45;;
23001;SDS011;11667;51.706;4.856;2023-08-06T02:30:58;10.08;;;4.55;;
23001;SDS011;11667;51.706;4.856;2023-08-06T02:33:28;9.03;;;4.53;;
23001;SDS011;11667;51.706;4.856;2023-08-06T02:36:00;12.25;;;4.83;;
23001;SDS011;11667;51.706;4.856;2023-08-06T02:38:32;7.12;;;4.50;;
23001;SDS011;11667;51.706;4.856;2023-08-06T02:41:02;9.68;;;4.95;;
23001;SDS011;11667;51.706;4.856;2023-08-06T02:43:32;8.98;;;4.92;;
23001;SDS011;11667;51.706;4.856;2023-08-06T02:46:01;8.00;;;4.83;;
23001;SDS011;11667;51.706;4.856;2023-08-06T02:48:31;8.25;;;4.62;;
23001;SDS011;11667;51.706;4.856;2023-08-06T02:51:01;9.95;;;5.33;;
23001;SDS011;11667;51.706;4.856;2023-08-06T02:53:31;8.30;;;4.90;;
23001;SDS011;11667;51.706;4.856;2023-08-06T02:56:02;9.28;;;5.00;;
23001;SDS011;11667;51.706;4.856;2023-08-06T02:58:33;10.05;;;5.17;;
23001;SDS011;11667;51.706;4.856;2023-08-06T03:01:07;8.15;;;4.92;;
23001;SDS011;11667;51.706;4.856;2023-08-06T03:03:38;8.80;;;4.97;;
23001;SDS011;11667;51.706;4.856;2023-08-06T03:06:08;8.90;;;5.10;;
23001;SDS011;11667;51.706;4.856;2023-08-06T03:08:39;10.38;;;5.55;;
23001;SDS011;11667;51.706;4.856;2023-08-06T03:11:09;10.50;;;5.40;;
23001;SDS011;11667;51.706;4.856;2023-08-06T03:13:39;8.15;;;5.15;;
23001;SDS011;11667;51.706;4.856;2023-08-06T03:16:08;9.15;;;5.60;;
23001;SDS011;11667;51.706;4.856;2023-08-06T03:18:38;9.13;;;5.03;;
23001;SDS011;11667;51.706;4.856;2023-08-06T03:21:08;9.85;;;5.53;;
23001;SDS011;11667;51.706;4.856;2023-08-06T03:23:37;10.72;;;5.65;;
23001;SDS011;11667;51.706;4.856;2023-08-06T03:26:07;10.13;;;5.22;;
23001;SDS011;11667;51.706;4.856;2023-08-06T03:28:37;12.25;;;5.75;;
23001;SDS011;11667;51.706;4.856;2023-08-06T03:31:06;9.95;;;5.72;;
23001;SDS011;11667;51.706;4.856;2023-08-06T03:33:37;16.62;;;5.87;;
23001;SDS011;11667;51.706;4.856;2023-08-06T03:36:08;11.95;;;5.85;;
23001;SDS011;11667;51.706;4.856;2023-08-06T03:38:38;12.25;;;5.72;;
23001;SDS011;11667;51.706;4.856;2023-08-06T03:41:08;9.15;;;5.50;;
23001;SDS011;11667;51.706;4.856;2023-08-06T03:43:37;10.05;;;5.70;;
23001;SDS011;11667;51.706;4.856;2023-08-06T03:46:08;11.22;;;5.80;;
23001;SDS011;11667;51.706;4.856;2023-08-06T03:48:38;8.45;;;5.25;;
23001;SDS011;11667;51.706;4.856;2023-08-06T03:51:07;10.90;;;6.28;;
23001;SDS011;11667;51.706;4.856;2023-08-06T03:53:37;10.03;;;5.62;;
23001;SDS011;11667;51.706;4.856;2023-08-06T03:56:06;10.35;;;5.97;;
23001;SDS011;11667;51.706;4.856;2023-08-06T03:58:36;10.82;;;5.80;;
23001;SDS011;11667;51.706;4.856;2023-08-06T04:01:05;14.98;;;6.90;;
23001;SDS011;11667;51.706;4.856;2023-08-06T04:03:36;14.23;;;7.42;;
23001;SDS011;11667;51.706;4.856;2023-08-06T04:06:06;18.73;;;7.05;;
23001;SDS011;11667;51.706;4.856;2023-08-06T04:08:36;21.35;;;9.55;;
23001;SDS011;11667;51.706;4.856;2023-08-06T04:11:07;23.02;;;9.58;;
23001;SDS011;11667;51.706;4.856;2023-08-06T04:13:36;22.95;;;9.55;;
23001;SDS011;11667;51.706;4.856;2023-08-06T04:16:06;13.22;;;7.35;;
23001;SDS011;11667;51.706;4.856;2023-08-06T04:18:35;10.90;;;5.60;;
23001;SDS011;11667;51.706;4.856;2023-08-06T04:21:05;9.55;;;4.28;;
23001;SDS011;11667;51.706;4.856;2023-08-06T04:23:34;8.95;;;3.05;;
23001;SDS011;11667;51.706;4.856;2023-08-06T04:26:05;5.15;;;2.47;;
23001;SDS011;11667;51.706;4.856;2023-08-06T04:28:35;3.42;;;1.87;;
23001;SDS011;11667;51.706;4.856;2023-08-06T04:31:04;2.85;;;1.67;;
23001;SDS011;11667;51.706;4.856;2023-08-06T04:33:35;2.10;;;1.50;;
23001;SDS011;11667;51.706;4.856;2023-08-06T04:36:06;3.02;;;1.30;;
23001;SDS011;11667;51.706;4.856;2023-08-06T04:38:36;1.62;;;1.30;;
23001;SDS011;11667;51.706;4.856;2023-08-06T04:41:06;3.22;;;1.20;;
23001;SDS011;11667;51.706;4.856;2023-08-06T04:43:35;1.52;;;0.80;;
23001;SDS011;11667;51.706;4.856;2023-08-06T04:46:05;1.30;;;0.90;;
23001;SDS011;11667;51.706;4.856;2023-08-06T04:48:34;2.00;;;1.40;;
23001;SDS011;11667;51.706;4.856;2023-08-06T04:51:04;5.17;;;2.00;;
23001;SDS011;11667;51.706;4.856;2023-08-06T04:53:33;5.03;;;2.45;;
23001;SDS011;11667;51.706;4.856;2023-08-06T04:56:02;4.37;;;2.47;;
23001;SDS011;11667;51.706;4.856;2023-08-06T04:58:32;7.87;;;4.10;;
23001;SDS011;11667;51.706;4.856;2023-08-06T05:01:01;13.85;;;7.53;;
23001;SDS011;11667;51.706;4.856;2023-08-06T05:03:31;20.45;;;9.63;;
23001;SDS011;11667;51.706;4.856;2023-08-06T05:06:00;15.98;;;8.33;;
23001;SDS011;11667;51.706;4.856;2023-08-06T05:08:30;8.85;;;5.37;;
23001;SDS011;11667;51.706;4.856;2023-08-06T05:10:59;8.20;;;4.58;;
23001;SDS011;11667;51.706;4.856;2023-08-06T05:13:28;7.67;;;4.67;;
23001;SDS011;11667;51.706;4.856;2023-08-06T05:15:58;10.28;;;5.05;;
23001;SDS011;11667;51.706;4.856;2023-08-06T05:18:27;8.23;;;5.17;;
23001;SDS011;11667;51.706;4.856;2023-08-06T05:20:58;10.20;;;5.25;;
23001;SDS011;11667;51.706;4.856;2023-08-06T05:23:27;10.35;;;5.37;;
23001;SDS011;11667;51.706;4.856;2023-08-06T05:25:56;8.23;;;5.00;;
23001;SDS011;11667;51.706;4.856;2023-08-06T05:28:26;10.88;;;5.50;;
23001;SDS011;11667;51.706;4.856;2023-08-06T05:30:55;11.33;;;6.30;;
23001;SDS011;11667;51.706;4.856;2023-08-06T05:33:24;11.08;;;6.55;;
23001;SDS011;11667;51.706;4.856;2023-08-06T05:35:54;8.83;;;5.58;;
23001;SDS011;11667;51.706;4.856;2023-08-06T05:38:23;12.98;;;5.65;;
23001;SDS011;11667;51.706;4.856;2023-08-06T05:40:53;15.53;;;5.40;;
23001;SDS011;11667;51.706;4.856;2023-08-06T05:43:22;10.85;;;5.47;;
23001;SDS011;11667;51.706;4.856;2023-08-06T05:45:52;10.20;;;5.28;;
23001;SDS011;11667;51.706;4.856;2023-08-06T05:48:21;11.08;;;4.92;;
23001;SDS011;11667;51.706;4.856;2023-08-06T05:50:52;11.22;;;5.35;;
23001;SDS011;11667;51.706;4.856;2023-08-06T05:53:22;11.90;;;5.42;;
23001;SDS011;11667;51.706;4.856;2023-08-06T05:55:51;13.25;;;5.80;;
23001;SDS011;11667;51.706;4.856;2023-08-06T05:58:20;12.18;;;5.62;;
23001;SDS011;11667;51.706;4.856;2023-08-06T06:00:51;10.65;;;5.50;;
23001;SDS011;11667;51.706;4.856;2023-08-06T06:03:21;10.55;;;5.67;;
23001;SDS011;11667;51.706;4.856;2023-08-06T06:05:50;12.33;;;6.50;;
23001;SDS011;11667;51.706;4.856;2023-08-06T06:08:20;12.15;;;5.67;;
23001;SDS011;11667;51.706;4.856;2023-08-06T06:10:49;14.93;;;5.80;;
23001;SDS011;11667;51.706;4.856;2023-08-06T06:13:18;13.72;;;6.05;;
23001;SDS011;11667;51.706;4.856;2023-08-06T06:15:48;15.03;;;6.00;;
23001;SDS011;11667;51.706;4.856;2023-08-06T06:18:17;11.65;;;6.08;;
23001;SDS011;11667;51.706;4.856;2023-08-06T06:20:46;12.50;;;6.20;;
23001;SDS011;11667;51.706;4.856;2023-08-06T06:23:16;12.95;;;6.25;;
23001;SDS011;11667;51.706;4.856;2023-08-06T06:25:48;11.22;;;5.90;;
23001;SDS011;11667;51.706;4.856;2023-08-06T06:28:21;17.50;;;6.62;;
23001;SDS011;11667;51.706;4.856;2023-08-06T06:30:51;14.43;;;6.05;;
23001;SDS011;11667;51.706;4.856;2023-08-06T06:33:20;13.75;;;6.15;;
23001;SDS011;11667;51.706;4.856;2023-08-06T06:35:49;17.17;;;5.65;;
23001;SDS011;11667;51.706;4.856;2023-08-06T06:38:19;13.38;;;6.17;;
23001;SDS011;11667;51.706;4.856;2023-08-06T06:40:55;10.10;;;6.08;;
23001;SDS011;11667;51.706;4.856;2023-08-06T06:43:27;13.48;;;5.72;;
23001;SDS011;11667;51.706;4.856;2023-08-06T06:45:56;10.28;;;5.10;;
23001;SDS011;11667;51.706;4.856;2023-08-06T06:48:28;13.32;;;5.15;;
23001;SDS011;11667;51.706;4.856;2023-08-06T06:50:59;10.08;;;4.30;;
23001;SDS011;11667;51.706;4.856;2023-08-06T06:53:29;10.80;;;4.45;;
23001;SDS011;11667;51.706;4.856;2023-08-06T06:56:01;11.48;;;3.70;;
23001;SDS011;11667;51.706;4.856;2023-08-06T06:58:32;8.38;;;3.70;;
23001;SDS011;11667;51.706;4.856;2023-08-06T07:01:01;10.43;;;3.40;;
23001;SDS011;11667;51.706;4.856;2023-08-06T07:03:31;9.10;;;3.67;;
23001;SDS011;11667;51.706;4.856;2023-08-06T07:06:00;6.42;;;3.52;;
23001;SDS011;11667;51.706;4.856;2023-08-06T07:08:29;8.78;;;3.12;;
23001;SDS011;11667;51.706;4.856;2023-08-06T07:11:03;6.53;;;3.60;;
23001;SDS011;11667;51.706;4.856;2023-08-06T07:13:30;10.20;;;3.80;;
23001;SDS011;11667;51.706;4.856;2023-08-06T07:16:00;9.20;;;3.45;;
23001;SDS011;11667;51.706;4.856;2023-08-06T07:18:29;12.05;;;3.58;;
23001;SDS011;11667;51.706;4.856;2023-08-06T07:20:58;7.62;;;3.15;;
23001;SDS011;11667;51.706;4.856;2023-08-06T07:23:28;8.83;;;2.25;;
23001;SDS011;11667;51.706;4.856;2023-08-06T07:25:57;7.37;;;2.35;;
23001;SDS011;11667;51.706;4.856;2023-08-06T07:28:26;7.35;;;2.30;;
23001;SDS011;11667;51.706;4.856;2023-08-06T07:30:56;7.47;;;2.02;;
23001;SDS011;11667;51.706;4.856;2023-08-06T07:33:25;7.42;;;2.02;;
23001;SDS011;11667;51.706;4.856;2023-08-06T07:35:55;4.00;;;1.90;;
23001;SDS011;11667;51.706;4.856;2023-08-06T07:38:24;6.95;;;2.62;;
23001;SDS011;11667;51.706;4.856;2023-08-06T07:40:54;4.90;;;2.08;;
23001;SDS011;11667;51.706;4.856;2023-08-06T07:43:23;6.17;;;2.08;;
23001;SDS011;11667;51.706;4.856;2023-08-06T07:45:52;8.00;;;2.40;;
23001;SDS011;11667;51.706;4.856;2023-08-06T07:48:22;10.20;;;2.30;;
23001;SDS011;11667;51.706;4.856;2023-08-06T07:50:52;6.12;;;2.20;;
23001;SDS011;11667;51.706;4.856;2023-08-06T07:53:22;14.18;;;3.35;;
23001;SDS011;11667;51.706;4.856;2023-08-06T07:55:54;7.50;;;2.60;;
23001;SDS011;11667;51.706;4.856;2023-08-06T07:58:23;6.92;;;3.08;;
23001;SDS011;11667;51.706;4.856;2023-08-06T08:00:53;8.33;;;2.70;;
23001;SDS011;11667;51.706;4.856;2023-08-06T08:03:23;9.90;;;3.50;;
23001;SDS011;11667;51.706;4.856;2023-08-06T08:05:54;7.53;;;2.30;;
23001;SDS011;11667;51.706;4.856;2023-08-06T08:08:26;8.13;;;2.95;;
23001;SDS011;11667;51.706;4.856;2023-08-06T08:10:56;7.03;;;2.45;;
23001;SDS011;11667;51.706;4.856;2023-08-06T08:13:27;5.28;;;2.45;;
23001;SDS011;11667;51.706;4.856;2023-08-06T08:15:59;8.78;;;2.77;;
23001;SDS011;11667;51.706;4.856;2023-08-06T08:20:59;7.70;;;2.20;;
23001;SDS011;11667;51.706;4.856;2023-08-06T08:23:28;7.40;;;2.60;;
23001;SDS011;11667;51.706;4.856;2023-08-06T08:25:59;8.85;;;2.80;;
23001;SDS011;11667;51.706;4.856;2023-08-06T08:28:29;6.15;;;2.50;;
23001;SDS011;11667;51.706;4.856;2023-08-06T08:30:59;7.70;;;2.60;;
23001;SDS011;11667;51.706;4.856;2023-08-06T08:33:28;10.88;;;3.00;;
23001;SDS011;11667;51.706;4.856;2023-08-06T08:35:58;6.12;;;2.90;;
23001;SDS011;11667;51.706;4.856;2023-08-06T08:38:27;6.92;;;2.80;;
23001;SDS011;11667;51.706;4.856;2023-08-06T08:40:56;4.65;;;2.37;;
23001;SDS011;11667;51.706;4.856;2023-08-06T08:43:26;11.43;;;2.45;;
23001;SDS011;11667;51.706;4.856;2023-08-06T08:45:56;6.42;;;2.40;;
23001;SDS011;11667;51.706;4.856;2023-08-06T08:48:28;8.63;;;2.83;;
23001;SDS011;11667;51.706;4.856;2023-08-06T08:50:57;4.80;;;2.40;;
23001;SDS011;11667;51.706;4.856;2023-08-06T08:53:27;7.45;;;2.40;;
23001;SDS011;11667;51.706;4.856;2023-08-06T08:55:56;6.95;;;2.30;;
23001;SDS011;11667;51.706;4.856;2023-08-06T08:58:26;7.50;;;2.20;;
23001;SDS011;11667;51.706;4.856;2023-08-06T09:00:55;4.40;;;2.12;;
23001;SDS011;11667;51.706;4.856;2023-08-06T09:03:25;4.10;;;2.05;;
23001;SDS011;11667;51.706;4.856;2023-08-06T09:05:55;7.42;;;2.27;;
23001;SDS011;11667;51.706;4.856;2023-08-06T09:08:27;6.70;;;2.33;;
23001;SDS011;11667;51.706;4.856;2023-08-06T09:10:58;3.98;;;2.10;;
23001;SDS011;11667;51.706;4.856;2023-08-06T09:13:28;4.90;;;1.87;;
23001;SDS011;11667;51.706;4.856;2023-08-06T09:15:58;7.05;;;2.50;;
23001;SDS011;11667;51.706;4.856;2023-08-06T09:18:29;2.52;;;1.62;;
23001;SDS011;11667;51.706;4.856;2023-08-06T09:20:59;7.30;;;2.80;;
23001;SDS011;11667;51.706;4.856;2023-08-06T09:23:29;4.12;;;2.05;;
23001;SDS011;11667;51.706;4.856;2023-08-06T09:25:59;6.58;;;2.12;;
23001;SDS011;11667;51.706;4.856;2023-08-06T09:28:39;6.65;;;2.33;;
23001;SDS011;11667;51.706;4.856;2023-08-06T09:31:10;4.50;;;1.80;;
23001;SDS011;11667;51.706;4.856;2023-08-06T09:33:39;3.37;;;1.70;;
23001;SDS011;11667;51.706;4.856;2023-08-06T09:36:09;4.10;;;1.80;;
23001;SDS011;11667;51.706;4.856;2023-08-06T09:38:39;5.75;;;1.80;;
23001;SDS011;11667;51.706;4.856;2023-08-06T09:41:09;2.33;;;1.62;;
23001;SDS011;11667;51.706;4.856;2023-08-06T09:43:42;4.72;;;1.60;;
23001;SDS011;11667;51.706;4.856;2023-08-06T09:46:14;3.77;;;2.05;;
23001;SDS011;11667;51.706;4.856;2023-08-06T09:48:45;4.05;;;1.60;;
23001;SDS011;11667;51.706;4.856;2023-08-06T09:51:15;2.62;;;1.77;;
23001;SDS011;11667;51.706;4.856;2023-08-06T09:53:44;3.02;;;1.70;;
23001;SDS011;11667;51.706;4.856;2023-08-06T09:56:14;3.52;;;1.70;;
23001;SDS011;11667;51.706;4.856;2023-08-06T09:58:44;6.22;;;1.75;;
23001;SDS011;11667;51.706;4.856;2023-08-06T10:01:15;3.22;;;1.70;;
23001;SDS011;11667;51.706;4.856;2023-08-06T10:03:45;5.47;;;2.10;;
23001;SDS011;11667;51.706;4.856;2023-08-06T10:06:16;2.72;;;1.30;;
23001;SDS011;11667;51.706;4.856;2023-08-06T10:08:46;2.05;;;1.22;;
23001;SDS011;11667;51.706;4.856;2023-08-06T10:11:15;2.33;;;1.40;;
23001;SDS011;11667;51.706;4.856;2023-08-06T10:13:46;1.98;;;1.52;;
23001;SDS011;11667;51.706;4.856;2023-08-06T10:16:16;2.33;;;1.60;;
23001;SDS011;11667;51.706;4.856;2023-08-06T10:18:45;3.50;;;1.60;;
23001;SDS011;11667;51.706;4.856;2023-08-06T10:21:15;2.45;;;1.57;;
23001;SDS011;11667;51.706;4.856;2023-08-06T10:23:49;2.52;;;1.30;;
23001;SDS011;11667;51.706;4.856;2023-08-06T10:26:17;2.45;;;1.55;;
23001;SDS011;11667;51.706;4.856;2023-08-06T10:28:47;2.35;;;1.20;;
23001;SDS011;11667;51.706;4.856;2023-08-06T10:31:16;2.52;;;1.12;;
23001;SDS011;11667;51.706;4.856;2023-08-06T10:33:46;2.40;;;1.30;;
23001;SDS011;11667;51.706;4.856;2023-08-06T10:36:15;4.33;;;1.17;;
23001;SDS011;11667;51.706;4.856;2023-08-06T10:38:46;2.58;;;1.00;;
23001;SDS011;11667;51.706;4.856;2023-08-06T10:41:23;1.80;;;1.17;;
23001;SDS011;11667;51.706;4.856;2023-08-06T10:44:07;1.98;;;1.07;;
23001;SDS011;11667;51.706;4.856;2023-08-06T10:46:38;2.75;;;1.30;;
23001;SDS011;11667;51.706;4.856;2023-08-06T10:49:07;1.87;;;0.90;;
23001;SDS011;11667;51.706;4.856;2023-08-06T10:51:36;2.75;;;1.07;;
23001;SDS011;11667;51.706;4.856;2023-08-06T10:54:06;3.10;;;1.15;;
23001;SDS011;11667;51.706;4.856;2023-08-06T10:56:39;1.87;;;1.10;;
23001;SDS011;11667;51.706;4.856;2023-08-06T10:59:08;3.33;;;1.00;;
23001;SDS011;11667;51.706;4.856;2023-08-06T11:01:38;4.45;;;1.10;;
23001;SDS011;11667;51.706;4.856;2023-08-06T11:04:07;2.50;;;1.40;;
23001;SDS011;11667;51.706;4.856;2023-08-06T11:06:38;2.52;;;1.15;;
23001;SDS011;11667;51.706;4.856;2023-08-06T11:09:09;2.50;;;1.20;;
23001;SDS011;11667;51.706;4.856;2023-08-06T11:11:39;2.00;;;1.20;;
23001;SDS011;11667;51.706;4.856;2023-08-06T11:14:14;2.58;;;1.10;;
23001;SDS011;11667;51.706;4.856;2023-08-06T11:16:42;1.72;;;0.72;;
23001;SDS011;11667;51.706;4.856;2023-08-06T11:19:12;3.20;;;1.10;;
23001;SDS011;11667;51.706;4.856;2023-08-06T11:21:43;2.60;;;1.10;;
23001;SDS011;11667;51.706;4.856;2023-08-06T11:24:12;2.33;;;1.05;;
23001;SDS011;11667;51.706;4.856;2023-08-06T11:26:42;4.92;;;1.10;;
23001;SDS011;11667;51.706;4.856;2023-08-06T11:29:11;5.53;;;1.05;;
23001;SDS011;11667;51.706;4.856;2023-08-06T11:31:41;1.72;;;1.10;;
23001;SDS011;11667;51.706;4.856;2023-08-06T11:34:10;2.70;;;1.02;;
23001;SDS011;11667;51.706;4.856;2023-08-06T11:36:40;2.52;;;1.02;;
23001;SDS011;11667;51.706;4.856;2023-08-06T11:39:10;2.42;;;1.17;;
23001;SDS011;11667;51.706;4.856;2023-08-06T11:41:39;5.80;;;1.82;;
23001;SDS011;11667;51.706;4.856;2023-08-06T11:44:10;4.62;;;1.20;;
23001;SDS011;11667;51.706;4.856;2023-08-06T11:46:52;3.90;;;1.10;;
23001;SDS011;11667;51.706;4.856;2023-08-06T11:52:20;3.45;;;1.20;;
23001;SDS011;11667;51.706;4.856;2023-08-06T11:55:06;2.90;;;1.35;;
23001;SDS011;11667;51.706;4.856;2023-08-06T11:57:38;4.17;;;1.42;;
23001;SDS011;11667;51.706;4.856;2023-08-06T12:00:12;3.08;;;0.98;;
23001;SDS011;11667;51.706;4.856;2023-08-06T12:02:45;5.10;;;1.10;;
23001;SDS011;11667;51.706;4.856;2023-08-06T12:05:17;4.10;;;1.42;;
23001;SDS011;11667;51.706;4.856;2023-08-06T12:07:55;4.50;;;1.05;;
23001;SDS011;11667;51.706;4.856;2023-08-06T12:10:29;3.42;;;1.00;;
23001;SDS011;11667;51.706;4.856;2023-08-06T12:12:59;3.58;;;1.27;;
23001;SDS011;11667;51.706;4.856;2023-08-06T12:15:30;3.90;;;0.95;;
23001;SDS011;11667;51.706;4.856;2023-08-06T12:18:00;2.83;;;1.07;;
23001;SDS011;11667;51.706;4.856;2023-08-06T12:20:30;7.10;;;1.82;;
23001;SDS011;11667;51.706;4.856;2023-08-06T12:22:59;4.85;;;1.10;;
23001;SDS011;11667;51.706;4.856;2023-08-06T12:25:28;3.58;;;1.42;;
23001;SDS011;11667;51.706;4.856;2023-08-06T12:27:58;5.30;;;1.05;;
23001;SDS011;11667;51.706;4.856;2023-08-06T12:30:27;3.83;;;1.00;;
23001;SDS011;11667;51.706;4.856;2023-08-06T12:32:57;1.82;;;0.90;;
23001;SDS011;11667;51.706;4.856;2023-08-06T12:35:26;5.40;;;1.00;;
23001;SDS011;11667;51.706;4.856;2023-08-06T12:37:56;3.17;;;1.00;;
23001;SDS011;11667;51.706;4.856;2023-08-06T12:40:25;2.92;;;0.90;;
23001;SDS011;11667;51.706;4.856;2023-08-06T12:42:56;1.95;;;0.80;;
23001;SDS011;11667;51.706;4.856;2023-08-06T12:45:26;2.12;;;0.80;;
23001;SDS011;11667;51.706;4.856;2023-08-06T12:47:56;1.77;;;0.90;;
23001;SDS011;11667;51.706;4.856;2023-08-06T12:50:25;1.70;;;0.90;;
23001;SDS011;11667;51.706;4.856;2023-08-06T12:52:55;3.10;;;0.90;;
23001;SDS011;11667;51.706;4.856;2023-08-06T12:55:24;2.62;;;1.00;;
23001;SDS011;11667;51.706;4.856;2023-08-06T12:57:53;2.85;;;1.00;;
23001;SDS011;11667;51.706;4.856;2023-08-06T13:00:25;1.57;;;1.05;;
23001;SDS011;11667;51.706;4.856;2023-08-06T13:02:55;1.30;;;0.90;;
23001;SDS011;11667;51.706;4.856;2023-08-06T13:05:25;2.05;;;1.02;;
23001;SDS011;11667;51.706;4.856;2023-08-06T13:07:54;2.60;;;1.10;;
23001;SDS011;11667;51.706;4.856;2023-08-06T13:10:24;2.08;;;1.10;;
23001;SDS011;11667;51.706;4.856;2023-08-06T13:12:55;1.90;;;0.95;;
23001;SDS011;11667;51.706;4.856;2023-08-06T13:15:24;2.22;;;1.12;;
23001;SDS011;11667;51.706;4.856;2023-08-06T13:17:53;1.70;;;0.70;;
23001;SDS011;11667;51.706;4.856;2023-08-06T13:20:23;3.45;;;0.88;;
23001;SDS011;11667;51.706;4.856;2023-08-06T13:22:52;2.47;;;0.93;;
23001;SDS011;11667;51.706;4.856;2023-08-06T13:25:39;3.42;;;0.93;;
23001;SDS011;11667;51.706;4.856;2023-08-06T13:28:09;2.98;;;0.88;;
23001;SDS011;11667;51.706;4.856;2023-08-06T13:30:38;2.05;;;0.82;;
23001;SDS011;11667;51.706;4.856;2023-08-06T13:33:10;1.40;;;0.75;;
23001;SDS011;11667;51.706;4.856;2023-08-06T13:35:39;1.07;;;0.70;;
23001;SDS011;11667;51.706;4.856;2023-08-06T13:38:09;1.90;;;0.70;;
23001;SDS011;11667;51.706;4.856;2023-08-06T13:40:38;1.15;;;0.70;;
23001;SDS011;11667;51.706;4.856;2023-08-06T13:43:08;2.05;;;0.80;;
23001;SDS011;11667;51.706;4.856;2023-08-06T13:45:37;2.10;;;0.68;;
23001;SDS011;11667;51.706;4.856;2023-08-06T13:48:06;2.80;;;0.65;;
23001;SDS011;11667;51.706;4.856;2023-08-06T13:50:37;1.30;;;0.68;;
23001;SDS011;11667;51.706;4.856;2023-08-06T13:53:07;1.77;;;0.60;;
23001;SDS011;11667;51.706;4.856;2023-08-06T13:55:37;1.10;;;0.55;;
23001;SDS011;11667;51.706;4.856;2023-08-06T13:58:06;1.35;;;0.82;;
23001;SDS011;11667;51.706;4.856;2023-08-06T14:00:36;1.05;;;0.50;;
23001;SDS011;11667;51.706;4.856;2023-08-06T14:03:05;1.47;;;0.50;;
23001;SDS011;11667;51.706;4.856;2023-08-06T14:05:36;2.08;;;0.60;;
23001;SDS011;11667;51.706;4.856;2023-08-06T14:08:05;1.92;;;0.90;;
23001;SDS011;11667;51.706;4.856;2023-08-06T14:10:35;2.45;;;0.90;;
23001;SDS011;11667;51.706;4.856;2023-08-06T14:13:04;3.25;;;0.72;;
23001;SDS011;11667;51.706;4.856;2023-08-06T14:15:35;8.75;;;1.17;;
23001;SDS011;11667;51.706;4.856;2023-08-06T14:18:07;5.08;;;0.80;;
23001;SDS011;11667;51.706;4.856;2023-08-06T14:20:37;4.28;;;0.78;;
23001;SDS011;11667;51.706;4.856;2023-08-06T14:23:06;4.20;;;0.98;;
23001;SDS011;11667;51.706;4.856;2023-08-06T14:25:36;5.45;;;0.88;;
23001;SDS011;11667;51.706;4.856;2023-08-06T14:28:06;4.72;;;0.80;;
23001;SDS011;11667;51.706;4.856;2023-08-06T14:30:35;1.72;;;0.70;;
23001;SDS011;11667;51.706;4.856;2023-08-06T14:33:05;2.60;;;0.70;;
23001;SDS011;11667;51.706;4.856;2023-08-06T14:35:36;2.77;;;0.70;;
23001;SDS011;11667;51.706;4.856;2023-08-06T14:38:05;2.33;;;0.68;;
23001;SDS011;11667;51.706;4.856;2023-08-06T14:40:34;1.82;;;0.53;;
23001;SDS011;11667;51.706;4.856;2023-08-06T14:43:05;3.85;;;0.50;;
23001;SDS011;11667;51.706;4.856;2023-08-06T14:45:40;1.80;;;0.40;;
23001;SDS011;11667;51.706;4.856;2023-08-06T14:48:07;3.40;;;0.40;;
23001;SDS011;11667;51.706;4.856;2023-08-06T14:50:36;2.00;;;0.95;;
23001;SDS011;11667;51.706;4.856;2023-08-06T14:53:07;1.27;;;0.50;;
23001;SDS011;11667;51.706;4.856;2023-08-06T14:55:38;2.83;;;0.80;;
23001;SDS011;11667;51.706;4.856;2023-08-06T14:58:09;1.85;;;0.47;;
23001;SDS011;11667;51.706;4.856;2023-08-06T15:00:38;1.90;;;0.40;;
23001;SDS011;11667;51.706;4.856;2023-08-06T15:03:08;2.58;;;0.40;;
23001;SDS011;11667;51.706;4.856;2023-08-06T15:05:37;3.22;;;0.60;;
23001;SDS011;11667;51.706;4.856;2023-08-06T15:08:06;2.17;;;0.50;;
23001;SDS011;11667;51.706;4.856;2023-08-06T15:10:36;1.85;;;0.42;;
23001;SDS011;11667;51.706;4.856;2023-08-06T15:13:05;2.87;;;0.93;;
23001;SDS011;11667;51.706;4.856;2023-08-06T15:15:34;2.83;;;0.60;;
23001;SDS011;11667;51.706;4.856;2023-08-06T15:18:06;2.43;;;0.50;;
23001;SDS011;11667;51.706;4.856;2023-08-06T15:20:36;2.00;;;0.70;;